createdAt,value
2019-03-23T00:01:00.280Z,20.50
2019-03-23T00:03:35.434Z,18.50
2019-03-23T00:06:09.496Z,19.90
2019-03-23T00:08:41.463Z,16.97
2019-03-23T00:11:17.213Z,20.57
2019-03-23T00:13:51.534Z,19.10
2019-03-23T00:16:25.789Z,20.80
2019-03-23T00:18:57.915Z,21.27
2019-03-23T00:21:29.324Z,23.73
2019-03-23T00:24:00.942Z,19.97
2019-03-23T00:26:38.182Z,21.90
2019-03-23T00:29:15.124Z,19.80
2019-03-23T00:31:48.727Z,18.67
2019-03-23T00:34:20.418Z,20.70
2019-03-23T00:36:51.746Z,21.70
2019-03-23T00:39:27.800Z,17.87
2019-03-23T00:41:59.654Z,21.23
2019-03-23T00:44:33.097Z,19.60
2019-03-23T00:47:04.424Z,15.83
2019-03-23T00:49:40.436Z,16.80
2019-03-23T00:52:15.199Z,18.40
2019-03-23T00:54:51.174Z,16.20
2019-03-23T00:57:22.473Z,15.80
2019-03-23T00:59:53.848Z,12.57
2019-03-23T01:02:25.717Z,14.60
2019-03-23T01:04:57.055Z,16.00
2019-03-23T01:07:28.363Z,13.30
2019-03-23T01:10:00.327Z,12.80
2019-03-23T01:12:33.050Z,12.27
2019-03-23T01:15:04.767Z,13.30
2019-03-23T01:17:37.582Z,9.53
2019-03-23T01:20:09.646Z,12.20
2019-03-23T01:22:41.322Z,10.33
2019-03-23T01:25:13.001Z,11.93
2019-03-23T01:27:44.567Z,11.60
2019-03-23T01:30:16.195Z,12.73
2019-03-23T01:32:47.998Z,11.83
2019-03-23T01:35:21.953Z,14.17
2019-03-23T01:37:53.432Z,10.63
2019-03-23T01:40:25.251Z,12.00
2019-03-23T01:42:57.993Z,10.97
2019-03-23T01:45:29.324Z,11.10
2019-03-23T01:48:01.030Z,13.57
2019-03-23T01:50:33.440Z,10.63
2019-03-23T01:53:04.851Z,12.20
2019-03-23T01:55:36.505Z,10.67
2019-03-23T01:58:07.841Z,9.67
2019-03-23T02:00:39.191Z,9.30
2019-03-23T02:03:11.504Z,10.23
2019-03-23T02:05:42.967Z,9.83
2019-03-23T02:08:14.317Z,12.53
2019-03-23T02:10:45.687Z,12.00
2019-03-23T02:13:20.151Z,10.53
2019-03-23T02:15:51.510Z,10.57
2019-03-23T02:18:22.874Z,11.57
2019-03-23T02:20:55.215Z,10.07
2019-03-23T02:23:27.629Z,8.83
2019-03-23T02:25:59.040Z,9.80
2019-03-23T02:28:30.846Z,8.27
2019-03-23T02:31:03.718Z,13.30
2019-03-23T02:33:35.099Z,11.37
2019-03-23T02:36:09.642Z,8.03
2019-03-23T02:38:41.162Z,9.30
2019-03-23T02:41:12.973Z,7.63
2019-03-23T02:43:44.585Z,8.70
2019-03-23T02:46:15.958Z,9.60
2019-03-23T02:48:48.722Z,7.63
2019-03-23T02:51:22.109Z,9.73
2019-03-23T02:53:53.501Z,8.30
2019-03-23T02:56:24.885Z,10.53
2019-03-23T02:58:56.605Z,9.50
2019-03-23T03:01:27.986Z,10.23
2019-03-23T03:03:59.626Z,10.27
2019-03-23T03:06:30.918Z,9.70
2019-03-23T03:09:02.256Z,8.00
2019-03-23T03:11:34.758Z,7.43
2019-03-23T03:14:06.576Z,8.70
2019-03-23T03:16:37.932Z,11.67
2019-03-23T03:19:09.416Z,13.07
2019-03-23T03:21:41.174Z,11.80
2019-03-23T03:24:12.566Z,12.53
2019-03-23T03:26:43.870Z,13.47
2019-03-23T03:29:15.212Z,9.93
2019-03-23T03:31:46.940Z,12.10
2019-03-23T03:34:18.326Z,10.30
2019-03-23T03:36:49.749Z,9.93
2019-03-23T03:39:21.402Z,11.37
2019-03-23T03:41:52.731Z,10.63
2019-03-23T03:44:24.098Z,9.47
2019-03-23T03:46:56.135Z,9.93
2019-03-23T03:49:27.633Z,10.80
2019-03-23T03:51:59.041Z,9.77
2019-03-23T03:54:30.705Z,10.37
2019-03-23T03:57:02.090Z,11.33
2019-03-23T03:59:33.505Z,11.43
2019-03-23T04:02:05.222Z,11.13
2019-03-23T04:04:36.517Z,10.03
2019-03-23T04:07:07.866Z,16.13
2019-03-23T04:09:40.492Z,10.23
2019-03-23T04:12:12.161Z,11.30
2019-03-23T04:14:43.559Z,12.63
2019-03-23T04:17:16.521Z,14.80
2019-03-23T04:19:47.869Z,13.47
2019-03-23T04:22:19.296Z,13.67
2019-03-23T04:24:51.058Z,14.23
2019-03-23T04:27:22.592Z,13.53
2019-03-23T04:29:53.889Z,13.67
2019-03-23T04:32:25.303Z,16.33
2019-03-23T04:34:56.877Z,12.03
2019-03-23T04:37:29.457Z,14.53
2019-03-23T04:40:01.254Z,9.97
2019-03-23T04:42:32.716Z,14.57
2019-03-23T04:45:04.075Z,11.43
2019-03-23T04:47:35.451Z,12.40
2019-03-23T04:50:07.896Z,12.23
2019-03-23T04:52:39.286Z,10.93
2019-03-23T04:55:11.643Z,11.07
2019-03-23T04:57:43.516Z,17.63
2019-03-23T05:00:15.304Z,12.70
2019-03-23T05:02:46.708Z,9.90
2019-03-23T05:05:18.402Z,9.57
2019-03-23T05:07:49.729Z,8.37
2019-03-23T05:10:21.074Z,9.07
2019-03-23T05:12:52.953Z,10.03
2019-03-23T05:15:26.178Z,8.10
2019-03-23T05:17:58.461Z,10.50
2019-03-23T05:20:31.737Z,10.27
2019-03-23T05:23:06.135Z,14.77
2019-03-23T05:25:37.862Z,12.77
2019-03-23T05:28:09.880Z,10.03
2019-03-23T05:30:41.309Z,12.70
2019-03-23T05:33:12.720Z,12.60
2019-03-23T05:35:44.058Z,14.07
2019-03-23T05:38:15.405Z,11.13
2019-03-23T05:40:46.726Z,14.10
2019-03-23T05:43:18.532Z,14.77
2019-03-23T05:45:49.858Z,11.47
2019-03-23T05:48:21.372Z,12.23
2019-03-23T05:50:54.945Z,14.43
2019-03-23T05:53:26.844Z,13.13
2019-03-23T05:55:58.240Z,15.43
2019-03-23T05:58:29.664Z,13.13
2019-03-23T06:01:01.209Z,12.10
2019-03-23T06:03:32.783Z,14.17
2019-03-23T06:06:04.104Z,15.83
2019-03-23T06:08:35.832Z,12.07
2019-03-23T06:11:07.443Z,17.23
2019-03-23T06:13:38.836Z,12.33
2019-03-23T06:16:10.838Z,15.37
2019-03-23T06:18:42.223Z,13.50
2019-03-23T06:21:14.797Z,15.00
2019-03-23T06:23:46.643Z,14.53
2019-03-23T06:26:18.031Z,12.60
2019-03-23T06:28:49.517Z,16.20
2019-03-23T06:31:20.899Z,15.73
2019-03-23T06:33:52.834Z,11.53
2019-03-23T06:36:25.950Z,14.90
2019-03-23T06:39:05.027Z,10.37
2019-03-23T06:41:30.340Z,13.97
2019-03-23T06:44:01.699Z,12.57
2019-03-23T06:46:36.203Z,11.87
2019-03-23T06:49:08.026Z,11.40
2019-03-23T06:51:39.363Z,10.47
2019-03-23T06:54:13.647Z,13.07
2019-03-23T06:56:47.750Z,9.87
2019-03-23T06:59:21.382Z,11.67
2019-03-23T07:01:55.332Z,8.97
2019-03-23T07:04:26.960Z,9.83
2019-03-23T07:07:00.300Z,9.07
2019-03-23T07:09:32.108Z,11.07
2019-03-23T07:12:05.291Z,9.83
2019-03-23T07:14:36.710Z,8.90
2019-03-23T07:17:08.483Z,9.63
2019-03-23T07:19:40.405Z,8.80
2019-03-23T07:22:12.112Z,8.87
2019-03-23T07:24:43.516Z,7.07
2019-03-23T07:27:16.502Z,8.03
2019-03-23T07:29:48.549Z,9.93
2019-03-23T07:32:19.920Z,9.13
2019-03-23T07:34:51.574Z,7.50
2019-03-23T07:37:22.866Z,10.77
2019-03-23T07:40:07.094Z,7.30
2019-03-23T07:42:38.438Z,8.77
2019-03-23T07:45:10.210Z,7.37
2019-03-23T07:47:41.931Z,9.43
2019-03-23T07:50:13.509Z,8.83
2019-03-23T07:52:45.509Z,6.37
2019-03-23T07:55:17.065Z,8.30
2019-03-23T07:57:51.367Z,8.63
2019-03-23T08:00:23.591Z,9.33
2019-03-23T08:02:54.952Z,9.40
2019-03-23T08:05:32.518Z,9.27
2019-03-23T08:08:04.311Z,9.70
2019-03-23T08:10:37.298Z,10.40
2019-03-23T08:13:13.525Z,10.10
2019-03-23T08:15:44.928Z,11.90
2019-03-23T08:18:16.754Z,10.67
2019-03-23T08:20:48.146Z,11.63
2019-03-23T08:23:20.462Z,11.43
2019-03-23T08:26:01.522Z,12.63
2019-03-23T08:28:52.333Z,10.87
2019-03-23T08:31:26.867Z,11.87
2019-03-23T08:33:58.358Z,13.47
2019-03-23T08:36:29.648Z,10.57
2019-03-23T08:39:01.128Z,11.93
2019-03-23T08:41:34.350Z,12.67
2019-03-23T08:44:05.718Z,12.53
2019-03-23T08:46:37.142Z,14.50
2019-03-23T08:49:08.451Z,14.13
2019-03-23T08:51:39.816Z,11.83
2019-03-23T08:54:14.952Z,19.73
2019-03-23T08:56:50.908Z,14.27
2019-03-23T08:59:22.407Z,13.73
2019-03-23T09:01:54.027Z,11.73
2019-03-23T09:04:25.399Z,13.60
2019-03-23T09:06:56.708Z,15.50
2019-03-23T09:09:28.846Z,14.37
2019-03-23T09:12:01.460Z,15.93
2019-03-23T09:14:34.304Z,14.03
2019-03-23T09:17:05.721Z,15.27
2019-03-23T09:19:40.973Z,16.43
2019-03-23T09:22:12.439Z,15.77
2019-03-23T09:24:43.748Z,15.60
2019-03-23T09:27:17.063Z,14.17
2019-03-23T09:29:48.405Z,18.67
2019-03-23T09:32:20.021Z,16.60
2019-03-23T09:35:00.452Z,14.87
2019-03-23T09:37:31.822Z,15.73
2019-03-23T09:40:11.075Z,17.97
2019-03-23T09:42:42.977Z,15.97
2019-03-23T09:45:18.194Z,15.10
2019-03-23T09:47:53.373Z,12.00
2019-03-23T09:50:28.471Z,13.33
2019-03-23T09:53:06.352Z,16.50
2019-03-23T09:55:37.955Z,13.53
2019-03-23T09:58:12.678Z,12.97
2019-03-23T10:00:44.704Z,14.20
2019-03-23T10:03:21.654Z,14.53
2019-03-23T10:05:56.012Z,17.50
2019-03-23T10:08:27.902Z,10.87
2019-03-23T10:10:59.355Z,13.43
2019-03-23T10:13:31.247Z,14.17
2019-03-23T10:16:07.765Z,11.77
2019-03-23T10:18:57.255Z,14.23
2019-03-23T10:21:28.533Z,14.33
2019-03-23T10:24:02.567Z,17.10
2019-03-23T10:26:34.716Z,14.70
2019-03-23T10:29:13.126Z,33.53
2019-03-23T10:31:52.277Z,10.87
2019-03-23T10:34:52.668Z,11.90
2019-03-23T10:38:06.863Z,12.30
2019-03-23T10:40:47.374Z,16.47
2019-03-23T10:43:18.892Z,19.63
2019-03-23T10:45:50.623Z,61.23
2019-03-23T10:48:24.819Z,18.73
2019-03-23T10:51:14.137Z,9.57
2019-03-23T10:53:51.570Z,13.10
2019-03-23T10:56:25.202Z,15.37
2019-03-23T10:58:57.332Z,14.40
2019-03-23T11:01:28.948Z,9.73
2019-03-23T11:04:09.152Z,36.40
2019-03-23T11:06:49.287Z,248.10
2019-03-23T11:09:30.272Z,20.43
2019-03-23T11:12:05.462Z,12.17
2019-03-23T11:14:40.569Z,11.73
2019-03-23T11:17:15.321Z,19.70
2019-03-23T11:19:47.000Z,11.37
2019-03-23T11:22:19.972Z,9.60
2019-03-23T11:24:52.286Z,10.80
2019-03-23T11:27:26.431Z,8.30
2019-03-23T11:30:00.011Z,9.93
2019-03-23T11:32:31.960Z,8.87
2019-03-23T11:35:04.426Z,9.47
2019-03-23T11:37:36.391Z,8.03
2019-03-23T11:40:07.971Z,9.90
2019-03-23T11:42:50.169Z,7.73
2019-03-23T11:45:21.287Z,13.77
2019-03-23T11:47:55.975Z,8.77
2019-03-23T11:50:37.701Z,9.27
2019-03-23T11:53:29.823Z,8.23
2019-03-23T11:56:05.302Z,9.50
2019-03-23T11:58:38.275Z,8.33
2019-03-23T12:01:15.097Z,8.67
2019-03-23T12:03:46.798Z,9.43
2019-03-23T12:06:27.387Z,7.83
2019-03-23T12:08:59.015Z,8.30
2019-03-23T12:11:32.529Z,10.20
2019-03-23T12:14:05.903Z,9.67
2019-03-23T12:16:43.325Z,9.90
2019-03-23T12:19:30.418Z,27.23
2019-03-23T12:22:02.074Z,23.23
2019-03-23T12:24:35.289Z,8.30
2019-03-23T12:27:06.631Z,7.93
2019-03-23T12:29:38.470Z,11.97
2019-03-23T12:32:11.461Z,6.13
2019-03-23T12:34:49.696Z,10.00
2019-03-23T12:37:21.098Z,8.50
2019-03-23T12:39:57.367Z,11.50
2019-03-23T12:42:28.710Z,10.10
2019-03-23T12:45:00.631Z,9.70
2019-03-23T12:47:40.477Z,9.30
2019-03-23T12:50:14.692Z,12.73
2019-03-23T12:52:46.408Z,16.23
2019-03-23T12:55:18.130Z,7.67
2019-03-23T12:57:49.519Z,7.73
2019-03-23T13:00:21.444Z,9.07
2019-03-23T13:02:55.790Z,8.03
2019-03-23T13:05:27.451Z,9.70
2019-03-23T13:07:59.114Z,10.10
2019-03-23T13:10:39.347Z,11.03
2019-03-23T13:13:17.128Z,8.70
2019-03-23T13:15:48.778Z,10.70
2019-03-23T13:18:27.182Z,10.53
2019-03-23T13:20:55.287Z,12.23
2019-03-23T13:23:29.166Z,9.43
2019-03-23T13:26:01.355Z,12.43
2019-03-23T13:28:36.270Z,8.60
2019-03-23T13:31:07.878Z,10.80
2019-03-23T13:33:46.370Z,13.67
2019-03-23T13:36:24.562Z,10.10
2019-03-23T13:38:57.711Z,8.57
2019-03-23T13:41:29.547Z,9.77
2019-03-23T13:44:01.072Z,9.53
2019-03-23T13:46:35.863Z,9.47
2019-03-23T13:49:08.870Z,9.20
2019-03-23T13:51:41.734Z,9.30
2019-03-23T13:54:25.366Z,11.77
2019-03-23T13:56:57.474Z,9.47
2019-03-23T13:59:35.804Z,10.70
2019-03-23T14:02:07.639Z,14.23
2019-03-23T14:04:39.230Z,12.10
2019-03-23T14:07:15.162Z,11.20
2019-03-23T14:09:57.572Z,11.97
2019-03-23T14:13:16.284Z,12.23
2019-03-23T14:16:25.891Z,11.80
2019-03-23T14:19:06.501Z,11.70
2019-03-23T14:21:41.407Z,11.13
2019-03-23T14:24:12.753Z,11.50
2019-03-23T14:26:44.403Z,13.63
2019-03-23T14:29:17.444Z,16.23
2019-03-23T14:31:49.040Z,16.93
2019-03-23T14:34:21.421Z,17.30
2019-03-23T14:37:36.791Z,19.33
2019-03-23T14:40:55.011Z,20.43
2019-03-23T14:43:34.312Z,23.03
2019-03-23T14:46:17.383Z,22.67
2019-03-23T14:48:48.846Z,24.53
2019-03-23T14:51:23.259Z,19.33
2019-03-23T14:53:54.990Z,22.60
2019-03-23T14:56:31.727Z,22.77
2019-03-23T14:59:07.482Z,22.80
2019-03-23T15:01:44.211Z,26.60
2019-03-23T15:04:21.637Z,25.10
2019-03-23T15:06:56.532Z,23.13
2019-03-23T15:09:31.099Z,25.07
2019-03-23T15:12:03.395Z,25.67
2019-03-23T15:14:35.155Z,27.03
2019-03-23T15:17:08.288Z,25.60
2019-03-23T15:19:41.411Z,26.27
2019-03-23T15:22:17.423Z,22.83
2019-03-23T15:24:49.348Z,25.40
2019-03-23T15:27:21.401Z,24.50
2019-03-23T15:29:54.844Z,25.57
2019-03-23T15:32:26.426Z,26.43
2019-03-23T15:34:58.125Z,23.80
2019-03-23T15:37:30.085Z,25.33
2019-03-23T15:40:02.916Z,19.13
2019-03-23T15:42:38.105Z,44.87
2019-03-23T15:45:17.094Z,51.00
2019-03-23T15:47:49.790Z,134.67
2019-03-23T15:50:23.071Z,25.43
2019-03-23T15:52:54.577Z,19.03
2019-03-23T15:55:33.197Z,25.43
2019-03-23T15:58:06.980Z,29.90
2019-03-23T16:00:41.072Z,22.00
2019-03-23T16:03:18.047Z,23.33
2019-03-23T16:05:50.033Z,21.97
2019-03-23T16:08:21.496Z,23.10
2019-03-23T16:10:55.928Z,25.77
2019-03-23T16:13:36.930Z,24.40
2019-03-23T16:16:11.052Z,25.47
2019-03-23T16:18:47.497Z,24.47
2019-03-23T16:21:19.201Z,37.23
2019-03-23T16:23:50.927Z,174.37
2019-03-23T16:26:31.343Z,344.33
2019-03-23T16:29:09.543Z,73.67
2019-03-23T16:31:41.233Z,354.93
2019-03-23T16:34:15.742Z,320.17
2019-03-23T16:36:48.239Z,141.17
2019-03-23T16:39:19.602Z,206.10
2019-03-23T16:41:57.504Z,143.33
2019-03-23T16:44:29.684Z,408.53
2019-03-23T16:47:37.086Z,111.33
2019-03-23T16:53:31.595Z,85.53
2019-03-23T16:56:03.437Z,123.73
2019-03-23T16:58:36.609Z,85.27
2019-03-23T17:01:08.222Z,85.00
2019-03-23T17:03:44.145Z,88.87
2019-03-23T17:06:15.536Z,79.47
2019-03-23T17:08:47.336Z,95.60
2019-03-23T17:11:18.945Z,88.43
2019-03-23T17:13:52.586Z,82.63
2019-03-23T17:16:37.985Z,84.30
2019-03-23T17:19:12.904Z,85.20
2019-03-23T17:21:49.830Z,92.03
2019-03-23T17:24:21.385Z,86.80
2019-03-23T17:26:52.765Z,89.47
2019-03-23T17:29:24.191Z,79.73
2019-03-23T17:31:57.066Z,88.57
2019-03-23T17:34:30.276Z,81.00
2019-03-23T17:37:02.049Z,85.77
2019-03-23T17:39:34.816Z,75.10
2019-03-23T17:42:06.493Z,76.87
2019-03-23T17:44:39.562Z,78.97
2019-03-23T17:47:11.528Z,73.77
2019-03-23T17:49:43.268Z,69.37
2019-03-23T17:52:15.261Z,68.40
2019-03-23T17:54:46.643Z,65.40
2019-03-23T17:57:18.493Z,69.93
2019-03-23T17:59:50.251Z,73.83
2019-03-23T18:02:26.198Z,72.77
2019-03-23T18:04:57.812Z,73.17
2019-03-23T18:07:29.370Z,65.63
2019-03-23T18:10:06.451Z,68.17
2019-03-23T18:12:39.897Z,70.50
2019-03-23T18:15:13.916Z,70.60
2019-03-23T18:17:46.056Z,72.30
2019-03-23T18:20:17.402Z,71.63
2019-03-23T18:22:51.487Z,70.23
2019-03-23T18:25:23.333Z,71.60
2019-03-23T18:27:55.031Z,80.57
2019-03-23T18:30:45.167Z,78.77
2019-03-23T18:33:19.913Z,75.53
2019-03-23T18:35:52.844Z,73.47
2019-03-23T18:38:29.239Z,75.33
2019-03-23T18:41:01.595Z,76.60
2019-03-23T18:43:44.392Z,97.30
2019-03-23T18:46:15.981Z,84.93
2019-03-23T18:48:49.351Z,81.37
2019-03-23T18:51:20.853Z,82.17
2019-03-23T18:53:59.754Z,85.07
2019-03-23T18:56:34.883Z,80.67
2019-03-23T18:59:11.422Z,89.67
2019-03-23T19:01:55.419Z,93.60
2019-03-23T19:04:35.267Z,88.10
2019-03-23T19:07:06.673Z,92.33
2019-03-23T19:09:43.866Z,89.67
2019-03-23T19:12:21.327Z,87.07
2019-03-23T19:15:01.195Z,86.77
2019-03-23T19:17:32.213Z,92.60
2019-03-23T19:20:04.550Z,87.43
2019-03-23T19:22:44.338Z,91.90
2019-03-23T19:25:19.494Z,99.03
2019-03-23T19:27:51.447Z,93.50
2019-03-23T19:30:28.118Z,89.60
2019-03-23T19:33:00.621Z,87.97
2019-03-23T19:35:36.172Z,98.10
2019-03-23T19:38:23.476Z,93.70
2019-03-23T19:41:01.755Z,97.50
2019-03-23T19:43:48.925Z,89.60
2019-03-23T19:46:20.180Z,85.47
2019-03-23T19:48:54.852Z,87.27
2019-03-23T19:51:26.557Z,86.07
2019-03-23T19:53:58.818Z,84.70
2019-03-23T19:56:42.752Z,98.10
2019-03-23T19:59:22.298Z,93.40
2019-03-23T20:01:57.312Z,84.40
2019-03-23T20:04:28.700Z,84.43
2019-03-23T20:07:06.316Z,94.47
2019-03-23T20:09:41.746Z,92.30
2019-03-23T20:12:15.038Z,85.03
2019-03-23T20:14:49.493Z,86.07
2019-03-23T20:17:24.465Z,87.03
2019-03-23T20:19:57.568Z,88.83
2019-03-23T20:22:29.178Z,80.57
2019-03-23T20:25:04.142Z,86.30
2019-03-23T20:27:35.841Z,90.43
2019-03-23T20:30:08.729Z,91.10
2019-03-23T20:32:46.533Z,81.53
2019-03-23T20:35:19.007Z,85.90
2019-03-23T20:37:53.455Z,88.30
2019-03-23T20:40:26.713Z,85.20
2019-03-23T20:43:07.533Z,80.60
2019-03-23T20:45:41.477Z,88.33
2019-03-23T20:48:15.736Z,82.63
2019-03-23T20:50:50.007Z,82.37
2019-03-23T20:53:23.670Z,88.53
2019-03-23T20:55:56.621Z,78.90
2019-03-23T20:58:29.797Z,79.13
2019-03-23T21:01:12.734Z,77.47
2019-03-23T21:03:53.901Z,77.13
2019-03-23T21:06:27.556Z,75.43
2019-03-23T21:08:59.221Z,84.27
2019-03-23T21:11:32.412Z,77.07
2019-03-23T21:14:04.162Z,77.03
2019-03-23T21:16:46.701Z,79.90
2019-03-23T21:19:18.074Z,81.30
2019-03-23T21:21:51.271Z,78.73
2019-03-23T21:24:24.370Z,85.00
2019-03-23T21:26:56.979Z,75.17
2019-03-23T21:29:28.662Z,81.17
2019-03-23T21:32:03.247Z,83.87
2019-03-23T21:34:41.525Z,84.97
2019-03-23T21:37:20.013Z,71.83
2019-03-23T21:39:57.417Z,82.47
2019-03-23T21:42:29.363Z,84.37
2019-03-23T21:45:05.101Z,81.27
2019-03-23T21:47:58.845Z,79.40
2019-03-23T21:54:26.596Z,85.73
2019-03-23T21:56:59.195Z,83.73
2019-03-23T21:59:33.895Z,80.60
2019-03-23T22:02:05.238Z,85.00
2019-03-23T22:04:39.239Z,89.17
2019-03-23T22:07:13.657Z,86.93
2019-03-23T22:09:57.684Z,87.90
2019-03-23T22:12:36.239Z,86.33
2019-03-23T22:15:10.555Z,88.10
2019-03-23T22:17:42.254Z,78.77
2019-03-23T22:20:14.624Z,82.70
2019-03-23T22:22:46.137Z,95.83
2019-03-23T22:25:22.278Z,84.87
2019-03-23T22:27:58.039Z,86.67
2019-03-23T22:30:31.163Z,91.30
2019-03-23T22:33:03.213Z,84.87
2019-03-23T22:35:34.640Z,83.70
2019-03-23T22:38:09.615Z,80.90
2019-03-23T22:40:42.520Z,79.77
2019-03-23T22:43:18.125Z,79.27
2019-03-23T22:45:51.772Z,77.47
2019-03-23T22:48:24.532Z,79.00
2019-03-23T22:50:59.446Z,80.03
2019-03-23T22:53:31.049Z,78.47
2019-03-23T22:56:04.417Z,87.63
2019-03-23T22:58:38.839Z,83.27
2019-03-23T23:01:10.404Z,85.27
2019-03-23T23:03:42.070Z,82.60
2019-03-23T23:06:14.499Z,87.90
2019-03-23T23:08:45.886Z,86.07
2019-03-23T23:11:17.286Z,84.43
2019-03-23T23:13:48.699Z,81.03
2019-03-23T23:16:20.114Z,81.20
2019-03-23T23:18:51.458Z,71.90
2019-03-23T23:21:22.963Z,83.33
2019-03-23T23:23:54.379Z,83.47
2019-03-23T23:26:27.806Z,89.87
2019-03-23T23:29:02.748Z,85.27
2019-03-23T23:31:34.113Z,83.80
2019-03-23T23:34:06.788Z,89.90
2019-03-23T23:36:39.567Z,82.10
2019-03-23T23:39:13.233Z,83.23
2019-03-23T23:41:47.682Z,92.70
2019-03-23T23:44:22.532Z,85.03
2019-03-23T23:46:55.299Z,85.30
2019-03-23T23:49:26.957Z,83.77
2019-03-23T23:51:59.577Z,85.37
2019-03-23T23:54:31.347Z,82.50
2019-03-23T23:57:05.951Z,89.83
2019-03-23T23:59:37.248Z,79.80
